Time;durP1;ratioP1;P1;durP2;ratioP2;P2;SDS_P1;SDS_P2;PMS_P1;PMS_P2;Temp;Humidity;BMP_temperature;BMP_pressure;BME280_temperature;BME280_humidity;BME280_pressure;Samples;Min_cycle;Max_cycle;Signal;HPM_P1;HPM_P2
2022/04/02 00:02:23;;;;;;;3.30;2.57;;;2.50;1.00;;;;;;5117660;28;20929;-72
2022/04/02 00:04:49;;;;;;;5.70;3.43;;;2.50;1.00;;;;;;5118326;28;20452;-72
2022/04/02 00:07:16;;;;;;;7.10;3.23;;;2.50;1.00;;;;;;5117947;28;20456;-72
2022/04/02 00:09:43;;;;;;;5.13;3.70;;;2.40;1.00;;;;;;5117690;28;20456;-72
2022/04/02 00:12:11;;;;;;;5.73;3.60;;;2.40;1.00;;;;;;5117526;28;20461;-72
2022/04/02 00:14:38;;;;;;;7.07;3.17;;;2.40;1.00;;;;;;5117362;28;20751;-71
2022/04/02 00:17:05;;;;;;;6.67;3.00;;;2.40;1.00;;;;;;5117508;28;20456;-71
2022/04/02 00:19:32;;;;;;;6.70;3.23;;;2.40;1.00;;;;;;5117649;28;20525;-71
2022/04/02 00:21:59;;;;;;;4.43;3.33;;;2.30;1.00;;;;;;5117310;28;20457;-71
2022/04/02 00:24:26;;;;;;;4.40;2.70;;;2.40;1.00;;;;;;5116857;28;20449;-71
2022/04/02 00:26:52;;;;;;;4.57;3.50;;;2.30;1.00;;;;;;5118442;28;20837;-72
2022/04/02 00:29:20;;;;;;;3.33;2.50;;;2.30;1.00;;;;;;5117107;28;20452;-71
2022/04/02 00:31:47;;;;;;;3.87;2.83;;;2.30;1.00;;;;;;5117335;28;20768;-71
2022/04/02 00:34:14;;;;;;;4.90;3.30;;;2.30;1.00;;;;;;5117017;28;20806;-71
2022/04/02 00:36:41;;;;;;;5.80;3.10;;;2.30;1.00;;;;;;5116943;28;20525;-72
2022/04/02 00:39:08;;;;;;;3.20;2.87;;;2.30;1.00;;;;;;5116811;28;20576;-71
2022/04/02 00:41:36;;;;;;;4.70;3.60;;;2.30;1.00;;;;;;5117406;28;20753;-72
2022/04/02 00:44:10;;;;;;;3.30;2.77;;;2.20;1.00;;;;;;5116645;28;20528;-72
2022/04/02 00:46:42;;;;;;;5.43;3.30;;;2.20;1.00;;;;;;5116903;28;20500;-71
2022/04/02 00:49:09;;;;;;;4.23;3.10;;;2.20;1.00;;;;;;5117852;28;20760;-72
2022/04/02 00:51:41;;;;;;;3.90;3.10;;;2.10;1.00;;;;;;5116805;28;20456;-71
2022/04/02 00:54:09;;;;;;;3.73;2.83;;;2.10;1.00;;;;;;5117251;28;20582;-72
2022/04/02 00:56:37;;;;;;;2.77;2.50;;;2.10;1.00;;;;;;5118614;28;20537;-72
2022/04/02 00:59:03;;;;;;;2.90;2.60;;;2.10;1.00;;;;;;5119985;28;20483;-72
2022/04/02 01:01:31;;;;;;;4.83;2.87;;;2.10;1.00;;;;;;5119328;28;20510;-72
2022/04/02 01:04:00;;;;;;;5.80;3.20;;;2.10;1.00;;;;;;5117658;28;20514;-72
2022/04/02 01:06:27;;;;;;;2.83;2.43;;;2.10;1.00;;;;;;5117397;28;20460;-72
2022/04/02 01:08:57;;;;;;;3.20;2.90;;;2.10;1.00;;;;;;5116598;28;20448;-73
2022/04/02 01:11:24;;;;;;;3.90;3.00;;;2.10;1.00;;;;;;5116447;28;20462;-73
2022/04/02 01:13:51;;;;;;;6.53;3.40;;;2.00;1.00;;;;;;5115936;28;20452;-72
2022/04/02 01:16:18;;;;;;;2.93;2.73;;;2.00;1.00;;;;;;5116073;28;20452;-72
2022/04/02 01:18:45;;;;;;;4.27;3.10;;;1.90;1.00;;;;;;5115130;28;20920;-72
2022/04/02 01:21:13;;;;;;;4.83;3.00;;;2.00;1.00;;;;;;5115753;28;20456;-73
2022/04/02 01:23:41;;;;;;;5.20;2.60;;;1.90;1.00;;;;;;5115313;28;20453;-72
2022/04/02 01:26:08;;;;;;;5.23;2.43;;;1.90;1.00;;;;;;5115624;28;20452;-72
2022/04/02 01:28:37;;;;;;;3.20;2.30;;;1.90;1.00;;;;;;5115477;28;20453;-72
2022/04/02 01:31:05;;;;;;;3.00;2.70;;;1.90;1.00;;;;;;5115331;28;20452;-73
2022/04/02 01:33:32;;;;;;;3.10;2.70;;;1.90;1.00;;;;;;5115059;28;20942;-73
2022/04/02 01:36:00;;;;;;;3.50;3.00;;;1.90;1.00;;;;;;5115035;28;20490;-71
2022/04/02 01:38:27;;;;;;;4.17;3.20;;;1.90;1.00;;;;;;5115099;28;20485;-71
2022/04/02 01:40:57;;;;;;;4.20;2.73;;;1.90;1.00;;;;;;5115181;28;20488;-72
2022/04/02 01:43:24;;;;;;;5.67;3.17;;;1.90;1.00;;;;;;5115272;28;20551;-72
2022/04/02 01:45:54;;;;;;;3.70;2.70;;;1.90;1.00;;;;;;5115285;28;20793;-71
2022/04/02 01:48:21;;;;;;;2.73;2.33;;;1.90;15.20;;;;;;5116260;28;20604;-72
2022/04/02 01:50:48;;;;;;;3.50;2.70;;;1.90;23.80;;;;;;5119396;28;20453;-72
2022/04/02 01:53:15;;;;;;;5.53;2.50;;;1.90;38.40;;;;;;5115510;28;20487;-72
2022/04/02 01:55:42;;;;;;;3.57;2.83;;;1.90;92.60;;;;;;5115578;28;20452;-72
2022/04/02 01:58:10;;;;;;;5.67;2.47;;;1.90;99.90;;;;;;5114878;28;20480;-73
2022/04/02 02:00:37;;;;;;;5.43;2.47;;;1.80;99.90;;;;;;5115056;28;20456;-73
2022/04/02 02:03:04;;;;;;;3.40;2.47;;;1.90;99.90;;;;;;5115961;28;20452;-72
2022/04/02 02:05:32;;;;;;;5.83;2.70;;;1.90;99.90;;;;;;5114976;28;20456;-72
2022/04/02 02:07:59;;;;;;;2.70;2.50;;;1.90;99.90;;;;;;5115116;28;20456;-71
2022/04/02 02:10:26;;;;;;;2.50;2.30;;;1.90;99.90;;;;;;5115204;28;20770;-72
2022/04/02 02:12:52;;;;;;;3.50;2.43;;;1.90;99.90;;;;;;5115044;28;20851;-72
2022/04/02 02:15:22;;;;;;;9.13;3.27;;;1.90;99.90;;;;;;5114772;28;20499;-71
2022/04/02 02:17:49;;;;;;;2.60;2.40;;;1.90;99.90;;;;;;5114941;28;20524;-72
2022/04/02 02:20:18;;;;;;;8.20;2.60;;;1.90;99.90;;;;;;5114487;28;20444;-72
2022/04/02 02:22:46;;;;;;;3.10;2.80;;;1.90;99.90;;;;;;5114987;28;20468;-71
2022/04/02 02:25:15;;;;;;;3.07;2.70;;;1.90;99.90;;;;;;5114912;28;20792;-71
2022/04/02 02:27:45;;;;;;;6.37;2.53;;;1.90;1.00;;;;;;5114628;28;20452;-73
2022/04/02 02:30:13;;;;;;;4.10;2.90;;;1.80;1.00;;;;;;5114888;28;20459;-71
2022/04/02 02:32:41;;;;;;;4.13;2.83;;;1.90;1.00;;;;;;5114865;28;20460;-71
2022/04/02 02:38:03;;;;;;;3.60;2.20;;;1.90;1.00;;;;;;5114703;28;20424;-71
2022/04/02 02:40:30;;;;;;;3.30;2.60;;;1.90;1.00;;;;;;5114699;28;20444;-71
2022/04/02 02:42:56;;;;;;;2.93;2.37;;;2.00;1.00;;;;;;5114599;28;20460;-72
2022/04/02 02:45:23;;;;;;;3.57;2.20;;;2.00;1.00;;;;;;5114576;28;20822;-72
2022/04/02 02:47:51;;;;;;;3.70;2.30;;;2.00;1.00;;;;;;5114730;28;20517;-72
2022/04/02 02:50:18;;;;;;;3.97;2.33;;;2.00;1.00;;;;;;5114213;28;20482;-72
2022/04/02 02:52:45;;;;;;;4.93;2.50;;;2.00;1.00;;;;;;5114154;28;20484;-72
2022/04/02 02:55:12;;;;;;;8.50;3.00;;;2.00;1.00;;;;;;5114186;28;20476;-72
2022/04/02 02:57:38;;;;;;;2.40;2.20;;;2.00;1.00;;;;;;5114554;28;20463;-71
2022/04/02 03:00:07;;;;;;;7.10;2.70;;;2.10;1.00;;;;;;5114308;28;20472;-73
2022/04/02 03:02:37;;;;;;;3.50;2.60;;;2.00;1.00;;;;;;5114549;28;20942;-72
2022/04/02 03:05:10;;;;;;;2.90;2.60;;;2.10;1.00;;;;;;5115076;28;20460;-73
2022/04/02 03:07:37;;;;;;;2.70;2.13;;;2.00;1.00;;;;;;5114709;28;20436;-73
2022/04/02 03:10:05;;;;;;;7.70;2.60;;;2.00;1.00;;;;;;5116893;28;20448;-72
2022/04/02 03:12:33;;;;;;;3.30;2.47;;;2.00;1.00;;;;;;5118191;28;20467;-72
2022/04/02 03:15:01;;;;;;;4.23;2.20;;;2.00;1.00;;;;;;5117763;28;20456;-71
2022/04/02 03:17:30;;;;;;;3.07;2.57;;;2.00;1.00;;;;;;5117704;28;20522;-72
2022/04/02 03:19:57;;;;;;;4.47;2.53;;;2.00;1.00;;;;;;5117357;28;20549;-72
2022/04/02 03:22:27;;;;;;;3.20;2.80;;;2.00;1.00;;;;;;5117972;28;20453;-71
2022/04/02 03:24:54;;;;;;;2.43;2.20;;;2.10;1.00;;;;;;5117580;28;20461;-72
2022/04/02 03:27:21;;;;;;;3.93;2.60;;;2.10;1.00;;;;;;5117547;28;20914;-72
2022/04/02 03:29:48;;;;;;;2.77;2.17;;;2.00;1.00;;;;;;5117426;28;20911;-72
2022/04/02 03:32:15;;;;;;;4.83;2.80;;;2.00;1.00;;;;;;5117631;28;20463;-72
2022/04/02 03:34:41;;;;;;;7.23;3.67;;;2.00;1.00;;;;;;5116966;28;20452;-74
2022/04/02 03:37:08;;;;;;;3.13;2.10;;;1.90;1.00;;;;;;5117666;28;20467;-71
2022/04/02 03:39:36;;;;;;;2.70;2.50;;;2.00;1.00;;;;;;5117677;28;20488;-72
2022/04/02 03:42:04;;;;;;;3.13;2.20;;;1.90;1.00;;;;;;5117624;28;20460;-72
2022/04/02 03:44:30;;;;;;;4.50;3.27;;;1.90;1.00;;;;;;5117630;28;20944;-72
2022/04/02 03:47:09;;;;;;;4.70;2.43;;;1.90;1.00;;;;;;5117665;28;20448;-72
2022/04/02 03:49:36;;;;;;;9.43;3.07;;;1.80;1.00;;;;;;5117563;28;20444;-73
2022/04/02 03:52:03;;;;;;;3.83;2.43;;;1.80;1.00;;;;;;5117610;28;20453;-72
2022/04/02 03:54:29;;;;;;;5.13;2.80;;;1.80;1.00;;;;;;5117296;28;20961;-72
2022/04/02 03:56:57;;;;;;;4.30;2.37;;;1.80;1.00;;;;;;5117360;28;20460;-72
2022/04/02 03:59:24;;;;;;;2.53;2.03;;;1.80;1.00;;;;;;5117317;28;20775;-73
2022/04/02 04:01:51;;;;;;;6.43;2.30;;;1.70;1.00;;;;;;5117357;28;20467;-73
2022/04/02 04:04:18;;;;;;;2.70;2.50;;;1.70;1.00;;;;;;5117289;28;20456;-72
2022/04/02 04:06:45;;;;;;;3.63;2.30;;;1.70;1.00;;;;;;5117163;28;20517;-72
2022/04/02 04:09:12;;;;;;;2.10;1.90;;;1.70;1.00;;;;;;5117214;28;20452;-72
2022/04/02 04:11:38;;;;;;;3.93;2.50;;;1.70;1.00;;;;;;5116804;28;20456;-72
2022/04/02 04:14:06;;;;;;;4.60;2.80;;;1.70;1.00;;;;;;5117088;28;20492;-72
2022/04/02 04:16:33;;;;;;;4.27;2.50;;;1.70;1.00;;;;;;5116887;28;20467;-72
2022/04/02 04:19:00;;;;;;;3.60;2.80;;;1.70;1.00;;;;;;5116561;28;20472;-72
2022/04/02 04:21:27;;;;;;;2.70;2.17;;;1.70;1.00;;;;;;5116211;28;20456;-72
2022/04/02 04:23:53;;;;;;;3.27;2.50;;;1.80;1.00;;;;;;5116842;28;20448;-72
2022/04/02 04:26:20;;;;;;;5.00;3.10;;;1.80;1.00;;;;;;5116629;28;20456;-71
2022/04/02 04:28:47;;;;;;;2.77;2.47;;;1.80;1.00;;;;;;5116654;28;20740;-72
2022/04/02 04:31:17;;;;;;;4.37;2.80;;;1.80;1.00;;;;;;5116605;28;20801;-73
2022/04/02 04:33:44;;;;;;;4.23;2.83;;;1.80;1.00;;;;;;5116915;28;20555;-72
2022/04/02 04:36:11;;;;;;;2.97;2.67;;;1.80;1.00;;;;;;5116482;28;20463;-72
2022/04/02 04:38:41;;;;;;;2.90;2.70;;;1.80;20.90;;;;;;5117193;28;20471;-72
2022/04/02 04:41:11;;;;;;;4.40;2.67;;;1.80;1.00;;;;;;5116423;28;20453;-72
2022/04/02 04:43:41;;;;;;;4.87;2.50;;;1.70;22.80;;;;;;5116273;28;20792;-72
2022/04/02 04:46:08;;;;;;;4.20;2.80;;;1.80;45.40;;;;;;5116167;28;20452;-73
2022/04/02 04:48:37;;;;;;;3.63;2.23;;;1.80;99.90;;;;;;5116701;28;20541;-72
2022/04/02 04:51:04;;;;;;;3.00;2.13;;;1.80;66.80;;;;;;5116022;28;20460;-71
2022/04/02 04:53:34;;;;;;;4.33;2.80;;;1.80;24.90;;;;;;5115929;28;20452;-71
2022/04/02 04:56:01;;;;;;;2.30;2.10;;;1.80;38.70;;;;;;5116403;28;20468;-71
2022/04/02 04:58:28;;;;;;;2.53;2.23;;;1.80;96.80;;;;;;5116256;28;20449;-72
2022/04/02 05:00:56;;;;;;;3.90;2.80;;;1.90;9.50;;;;;;5116033;28;20476;-72
2022/04/02 05:03:23;;;;;;;5.50;2.80;;;1.80;1.00;;;;;;5116233;28;20926;-71
2022/04/02 05:05:52;;;;;;;2.70;2.10;;;1.90;1.00;;;;;;5115561;28;20464;-72
2022/04/02 05:08:19;;;;;;;3.07;2.67;;;1.80;1.00;;;;;;5116158;28;20825;-72
2022/04/02 05:10:46;;;;;;;4.47;3.20;;;1.90;1.00;;;;;;5115868;28;20812;-72
2022/04/02 05:13:14;;;;;;;2.70;2.13;;;1.90;1.00;;;;;;5115587;28;20907;-70
2022/04/02 05:15:42;;;;;;;5.53;2.70;;;1.80;11.30;;;;;;5115356;28;20548;-72
2022/04/02 05:18:10;;;;;;;3.40;2.40;;;1.90;2.60;;;;;;5115514;28;20464;-71
2022/04/02 05:20:38;;;;;;;3.10;2.63;;;1.90;1.00;;;;;;5115249;28;20476;-72
2022/04/02 05:23:08;;;;;;;4.60;2.83;;;1.80;2.50;;;;;;5115330;28;20922;-72
2022/04/02 05:25:35;;;;;;;4.90;2.83;;;1.90;11.90;;;;;;5115574;28;20456;-71
2022/04/02 05:28:04;;;;;;;2.83;2.60;;;1.80;6.30;;;;;;5115701;28;20778;-71
2022/04/02 05:30:31;;;;;;;4.37;2.77;;;1.90;62.40;;;;;;5115613;28;20521;-71
2022/04/02 05:32:58;;;;;;;3.80;2.50;;;1.90;1.00;;;;;;5114709;28;20483;-71
2022/04/02 05:35:25;;;;;;;4.00;2.70;;;1.90;1.00;;;;;;5115560;28;20791;-70
2022/04/02 05:37:51;;;;;;;7.30;2.60;;;1.90;1.00;;;;;;5115473;28;20453;-72
2022/04/02 05:40:19;;;;;;;2.80;2.43;;;1.90;1.00;;;;;;5115819;28;20487;-72
2022/04/02 05:42:47;;;;;;;3.50;2.50;;;2.00;1.00;;;;;;5115970;28;20798;-73
2022/04/02 05:45:14;;;;;;;4.07;2.40;;;2.00;1.00;;;;;;5116628;28;20460;-72
2022/04/02 05:47:42;;;;;;;3.67;2.43;;;2.00;1.00;;;;;;5116116;28;20456;-72
2022/04/02 05:50:10;;;;;;;3.47;2.67;;;2.00;1.00;;;;;;5115929;28;20524;-73
2022/04/02 05:52:37;;;;;;;3.93;2.43;;;2.00;1.00;;;;;;5115868;28;20467;-72
2022/04/02 05:55:04;;;;;;;3.63;3.03;;;2.10;1.00;;;;;;5115195;28;20494;-72
2022/04/02 05:57:32;;;;;;;2.83;2.63;;;2.10;1.00;;;;;;5115901;28;20448;-72
2022/04/02 05:59:59;;;;;;;4.40;2.37;;;2.20;1.00;;;;;;5115774;28;20499;-76
2022/04/02 06:02:29;;;;;;;3.43;3.00;;;2.20;1.00;;;;;;5116689;28;20843;-72
2022/04/02 06:04:59;;;;;;;3.13;2.83;;;2.30;1.00;;;;;;5115317;28;20458;-72
2022/04/02 06:07:26;;;;;;;3.17;2.50;;;2.30;1.00;;;;;;5116557;28;20479;-72
2022/04/02 06:09:52;;;;;;;3.73;2.43;;;2.30;1.00;;;;;;5115849;28;20513;-72
2022/04/02 06:12:19;;;;;;;3.13;2.80;;;2.40;1.00;;;;;;5115824;28;20452;-72
2022/04/02 06:14:47;;;;;;;4.10;2.43;;;2.40;1.00;;;;;;5115367;28;20837;-73
2022/04/02 06:17:14;;;;;;;3.30;2.50;;;2.50;1.00;;;;;;5119291;28;20490;-73
2022/04/02 06:19:41;;;;;;;3.13;2.30;;;2.50;1.00;;;;;;5119250;28;20476;-71
2022/04/02 06:22:07;;;;;;;2.80;2.50;;;2.50;1.00;;;;;;5116643;28;20471;-73
2022/04/02 06:24:34;;;;;;;5.13;2.97;;;2.60;1.00;;;;;;5115115;28;20463;-73
2022/04/02 06:27:01;;;;;;;2.93;2.63;;;2.70;1.00;;;;;;5115062;28;20467;-72
2022/04/02 06:29:28;;;;;;;3.13;2.67;;;2.70;1.00;;;;;;5114746;28;20452;-72
2022/04/02 06:31:56;;;;;;;13.53;8.53;;;2.80;99.90;;;;;;5115123;28;20825;-73
2022/04/02 06:34:23;;;;;;;21.10;12.30;;;2.80;99.90;;;;;;5114667;28;20957;-72
2022/04/02 06:36:50;;;;;;;8.70;5.07;;;2.90;99.90;;;;;;5115030;28;20799;-72
2022/04/02 06:39:17;;;;;;;5.00;2.37;;;3.00;99.90;;;;;;5115130;28;20794;-72
2022/04/02 06:41:44;;;;;;;4.13;2.63;;;3.10;99.90;;;;;;5114858;28;20460;-72
2022/04/02 06:44:11;;;;;;;4.80;2.20;;;3.20;99.90;;;;;;5117393;28;20780;-71
2022/04/02 06:46:38;;;;;;;5.03;2.17;;;3.30;99.90;;;;;;5118731;28;20773;-73
2022/04/02 06:49:07;;;;;;;2.53;2.10;;;3.40;99.90;;;;;;5118669;28;20452;-71
2022/04/02 06:51:34;;;;;;;3.10;2.13;;;3.40;99.90;;;;;;5118767;28;20452;-72
2022/04/02 06:54:01;;;;;;;3.17;2.70;;;3.50;99.90;;;;;;5118246;28;20557;-72
2022/04/02 06:56:27;;;;;;;3.50;2.10;;;3.60;99.90;;;;;;5118488;28;20461;-72
2022/04/02 06:58:54;;;;;;;4.70;2.17;;;3.70;99.90;;;;;;5119172;28;20452;-72
2022/04/02 07:01:21;;;;;;;2.60;2.20;;;3.70;99.90;;;;;;5118263;28;20477;-72
2022/04/02 07:03:48;;;;;;;7.87;2.23;;;3.80;99.90;;;;;;5119119;28;20773;-72
2022/04/02 07:06:16;;;;;;;6.03;4.50;;;3.90;99.90;;;;;;5118799;28;20804;-73
2022/04/02 07:08:42;;;;;;;2.40;2.17;;;3.90;89.50;;;;;;5119245;28;20456;-71
2022/04/02 07:11:09;;;;;;;2.97;2.00;;;3.90;60.30;;;;;;5118660;28;20452;-73
2022/04/02 07:13:36;;;;;;;5.57;2.50;;;3.90;53.20;;;;;;5118991;28;20457;-72
2022/04/02 07:16:03;;;;;;;4.20;2.67;;;4.00;43.00;;;;;;5119223;28;20501;-72
2022/04/02 07:18:34;;;;;;;4.07;2.57;;;4.00;34.50;;;;;;5118530;28;20452;-72
2022/04/02 07:21:02;;;;;;;9.70;2.57;;;4.10;27.80;;;;;;5119067;28;20492;-73
2022/04/02 07:23:30;;;;;;;3.83;2.27;;;4.10;15.10;;;;;;5118998;28;20823;-72
2022/04/02 07:25:57;;;;;;;3.13;2.63;;;4.20;6.10;;;;;;5119129;28;20453;-73
2022/04/02 07:28:25;;;;;;;2.93;2.37;;;4.30;1.00;;;;;;5118709;28;20543;-73
2022/04/02 07:30:52;;;;;;;8.60;3.37;;;4.30;1.00;;;;;;5119882;28;20449;-72
2022/04/02 07:33:19;;;;;;;16.20;9.13;;;4.40;1.00;;;;;;5119781;28;20530;-72
2022/04/02 07:35:54;;;;;;;5.37;2.30;;;4.50;1.00;;;;;;5120866;28;20860;-73
2022/04/02 07:38:23;;;;;;;3.67;2.40;;;4.60;1.00;;;;;;5121088;28;20464;-73
2022/04/02 07:41:05;;;;;;;4.53;2.77;;;4.70;1.00;;;;;;5120124;28;20476;-73
2022/04/02 07:43:40;;;;;;;3.13;2.17;;;4.70;1.00;;;;;;5118797;28;20433;-73
2022/04/02 07:46:14;;;;;;;2.30;2.10;;;4.70;1.00;;;;;;5118843;28;20776;-74
2022/04/02 07:48:42;;;;;;;5.17;2.50;;;4.80;1.00;;;;;;5118446;28;20441;-73
2022/04/02 07:51:12;;;;;;;3.97;2.33;;;4.80;1.00;;;;;;5118040;28;20874;-71
2022/04/02 07:53:44;;;;;;;5.13;2.07;;;4.90;1.00;;;;;;5119241;28;20456;-72
2022/04/02 07:56:15;;;;;;;3.70;2.07;;;4.90;1.00;;;;;;5117083;28;20528;-72
2022/04/02 07:58:47;;;;;;;3.50;2.10;;;4.90;1.00;;;;;;5117649;28;20441;-73
2022/04/02 08:01:17;;;;;;;3.87;1.87;;;4.90;1.00;;;;;;5117064;28;20507;-72
2022/04/02 08:03:46;;;;;;;2.67;2.00;;;4.90;1.00;;;;;;5117763;28;20890;-72
2022/04/02 08:06:14;;;;;;;2.43;1.90;;;4.90;1.00;;;;;;5117170;28;20456;-72
2022/04/02 08:08:44;;;;;;;5.17;2.00;;;4.80;1.00;;;;;;5117204;28;20452;-72
2022/04/02 08:11:12;;;;;;;2.73;2.00;;;4.80;1.00;;;;;;5117148;28;20480;-73
2022/04/02 08:13:41;;;;;;;4.30;3.43;;;4.90;1.00;;;;;;5117492;28;20456;-71
2022/04/02 08:16:09;;;;;;;7.57;4.30;;;4.90;1.00;;;;;;5117328;28;20555;-72
2022/04/02 08:18:39;;;;;;;2.83;2.10;;;5.00;1.00;;;;;;5117363;28;20457;-73
2022/04/02 08:21:07;;;;;;;24.40;14.40;;;5.10;1.00;;;;;;5117171;28;20821;-72
2022/04/02 08:23:33;;;;;;;5.07;2.40;;;5.10;1.00;;;;;;5116712;28;20949;-73
2022/04/02 08:26:07;;;;;;;2.63;2.03;;;5.10;1.00;;;;;;5117067;28;20463;-72
2022/04/02 08:28:46;;;;;;;2.70;2.40;;;5.10;1.00;;;;;;5117798;28;20772;-72
2022/04/02 08:31:26;;;;;;;3.50;1.80;;;5.20;1.00;;;;;;5117541;28;20432;-72
2022/04/02 08:34:04;;;;;;;3.00;1.50;;;5.30;1.00;;;;;;5116992;28;20437;-72
2022/04/02 08:36:39;;;;;;;2.80;2.10;;;5.30;1.00;;;;;;5116924;28;20480;-72
2022/04/02 08:39:09;;;;;;;4.33;2.03;;;5.30;1.00;;;;;;5116895;28;20859;-72
2022/04/02 08:42:09;;;;;;;2.13;1.70;;;5.40;1.00;;;;;;5117117;28;20476;-73
2022/04/02 08:45:03;;;;;;;2.40;1.60;;;5.40;1.00;;;;;;5118019;28;20441;-73
2022/04/02 08:48:13;;;;;;;3.30;1.90;;;5.50;1.00;;;;;;5117838;28;20555;-73
2022/04/02 08:50:45;;;;;;;2.90;2.10;;;5.50;1.00;;;;;;5108061;28;20453;-71
2022/04/02 08:53:21;;;;;;;19.20;11.73;;;5.60;1.00;;;;;;5117441;28;20437;-73
2022/04/02 08:55:53;;;;;;;6.83;2.80;;;5.70;1.00;;;;;;5117002;28;20487;-74
2022/04/02 08:58:26;;;;;;;3.53;1.80;;;5.90;1.00;;;;;;5117072;28;20593;-72
2022/04/02 09:01:07;;;;;;;2.60;2.10;;;6.00;1.00;;;;;;5116456;28;20993;-72
2022/04/02 09:04:13;;;;;;;2.90;2.20;;;6.00;1.00;;;;;;5116549;28;20483;-72
2022/04/02 09:07:33;;;;;;;2.40;2.20;;;6.10;1.00;;;;;;5117154;28;20459;-74
2022/04/02 09:10:37;;;;;;;3.47;2.57;;;6.30;1.00;;;;;;5117720;28;20459;-73
2022/04/02 09:13:26;;;;;;;2.60;2.37;;;6.60;1.00;;;;;;5066685;28;20484;-73
2022/04/02 09:16:02;;;;;;;2.80;2.30;;;6.80;1.00;;;;;;5118391;28;20448;-73
2022/04/02 09:18:37;;;;;;;3.93;2.37;;;7.00;1.00;;;;;;5117755;28;20440;-72
2022/04/02 09:21:27;;;;;;;2.27;2.03;;;7.10;1.00;;;;;;5117601;28;20474;-72
2022/04/02 09:24:05;;;;;;;5.37;2.40;;;7.20;1.00;;;;;;5117347;28;20441;-72
2022/04/02 09:27:09;;;;;;;3.80;2.70;;;7.20;1.00;;;;;;5116945;28;20440;-72
2022/04/02 09:29:44;;;;;;;4.10;2.77;;;7.00;1.00;;;;;;5116840;28;20535;-72
2022/04/02 09:32:46;;;;;;;4.40;2.90;;;6.90;1.00;;;;;;5115900;28;20436;-73
2022/04/02 09:35:51;;;;;;;4.20;2.53;;;6.80;1.00;;;;;;5118054;28;20452;-74
2022/04/02 09:38:45;;;;;;;4.23;3.03;;;6.70;1.00;;;;;;5116609;28;20448;-73
2022/04/02 09:41:24;;;;;;;3.93;2.37;;;6.80;1.00;;;;;;5116686;28;20537;-73
2022/04/02 09:44:00;;;;;;;2.13;2.00;;;6.80;1.00;;;;;;5116437;28;20468;-71
2022/04/02 09:46:48;;;;;;;4.40;2.67;;;6.70;1.00;;;;;;5116010;28;20778;-72
2022/04/02 09:49:22;;;;;;;27.37;14.97;;;6.70;1.00;;;;;;5116333;28;20525;-71
2022/04/02 09:52:02;;;;;;;3.03;2.30;;;6.70;1.00;;;;;;5115612;28;20469;-72
2022/04/02 09:54:34;;;;;;;7.27;2.90;;;6.60;1.00;;;;;;5115323;28;20965;-73
2022/04/02 09:57:08;;;;;;;2.70;2.47;;;6.60;1.00;;;;;;5115843;28;20437;-73
2022/04/02 09:59:44;;;;;;;3.43;2.60;;;6.80;1.00;;;;;;5116053;28;20424;-73
2022/04/02 10:02:27;;;;;;;3.03;2.40;;;6.80;1.00;;;;;;5119102;28;20467;-73
2022/04/02 10:05:01;;;;;;;2.80;2.50;;;6.90;1.00;;;;;;5118695;28;20445;-73
2022/04/02 10:07:45;;;;;;;3.93;2.63;;;7.10;1.00;;;;;;5115953;28;20512;-73
2022/04/02 10:10:12;;;;;;;3.90;2.40;;;7.20;1.00;;;;;;5115939;28;20444;-72
2022/04/02 10:12:40;;;;;;;3.90;2.70;;;7.30;1.00;;;;;;5115240;28;20468;-71
2022/04/02 10:15:07;;;;;;;2.97;2.40;;;7.50;1.00;;;;;;5114664;28;20527;-72
2022/04/02 10:17:36;;;;;;;21.10;13.17;;;7.60;1.00;;;;;;5114945;28;20826;-74
2022/04/02 10:20:09;;;;;;;2.83;2.53;;;7.80;1.00;;;;;;5119578;28;20760;-73
2022/04/02 10:22:43;;;;;;;3.50;2.50;;;7.90;1.00;;;;;;5119816;28;20806;-73
2022/04/02 10:25:12;;;;;;;3.50;2.63;;;7.80;1.00;;;;;;5119358;28;20501;-72
2022/04/02 10:27:43;;;;;;;4.30;2.43;;;7.80;1.00;;;;;;5119175;28;20464;-72
2022/04/02 10:30:12;;;;;;;4.03;2.83;;;7.90;1.00;;;;;;5118881;28;20483;-73
2022/04/02 10:32:52;;;;;;;3.57;3.03;;;7.90;1.00;;;;;;5119172;28;20539;-72
2022/04/02 10:35:20;;;;;;;4.40;2.93;;;8.00;1.00;;;;;;5119967;28;20535;-73
2022/04/02 10:38:06;;;;;;;4.53;2.73;;;8.10;1.00;;;;;;5119035;28;20456;-72
2022/04/02 10:40:34;;;;;;;3.80;2.27;;;8.20;1.00;;;;;;5118798;28;20437;-72
2022/04/02 10:43:04;;;;;;;3.43;2.57;;;8.30;1.00;;;;;;5118785;28;20456;-72
2022/04/02 10:45:37;;;;;;;6.30;4.60;;;8.50;1.00;;;;;;5119975;28;20474;-72
2022/04/02 10:48:10;;;;;;;4.90;2.83;;;8.60;1.00;;;;;;5120252;28;20501;-73
2022/04/02 10:50:37;;;;;;;3.07;2.43;;;8.60;1.00;;;;;;5119686;28;20958;-73
2022/04/02 10:53:08;;;;;;;3.20;2.70;;;8.80;1.00;;;;;;5119627;28;20456;-73
2022/04/02 10:55:42;;;;;;;4.50;2.23;;;8.90;1.00;;;;;;5119406;28;20480;-73
2022/04/02 10:58:12;;;;;;;3.70;2.63;;;8.80;1.00;;;;;;5119621;28;20771;-72
2022/04/02 11:00:44;;;;;;;4.87;2.50;;;8.70;1.00;;;;;;5118708;28;20452;-73
2022/04/02 11:03:20;;;;;;;3.27;2.10;;;8.70;1.00;;;;;;5118935;28;20492;-71
2022/04/02 11:05:47;;;;;;;2.10;1.90;;;8.80;1.00;;;;;;5119214;28;20748;-73
2022/04/02 11:08:15;;;;;;;4.20;2.10;;;8.80;1.00;;;;;;5118221;28;20460;-72
2022/04/02 11:10:48;;;;;;;5.60;2.03;;;8.80;1.00;;;;;;5118445;28;20456;-73
2022/04/02 11:13:28;;;;;;;8.37;1.77;;;8.60;1.00;;;;;;5118952;28;20448;-73
2022/04/02 11:15:55;;;;;;;3.77;1.80;;;8.50;1.00;;;;;;5119109;28;20904;-73
2022/04/02 11:18:21;;;;;;;3.40;2.00;;;8.50;1.00;;;;;;5118727;28;20469;-71
2022/04/02 11:20:49;;;;;;;2.47;1.90;;;8.40;1.00;;;;;;5118951;28;20468;-74
2022/04/02 11:23:23;;;;;;;2.27;2.07;;;8.40;1.00;;;;;;5118543;28;20494;-74
2022/04/02 11:25:55;;;;;;;2.60;1.93;;;8.30;1.00;;;;;;5118248;28;20500;-72
2022/04/02 11:28:24;;;;;;;2.20;1.50;;;8.20;1.00;;;;;;5118645;28;20440;-73
2022/04/02 11:30:52;;;;;;;4.67;3.00;;;8.10;1.00;;;;;;5117477;28;20770;-73
2022/04/02 11:33:21;;;;;;;5.03;2.13;;;7.90;1.00;;;;;;5118365;28;20910;-73
2022/04/02 11:35:50;;;;;;;3.10;1.93;;;7.60;1.00;;;;;;5118647;28;20782;-73
2022/04/02 11:38:30;;;;;;;3.53;1.90;;;7.40;1.00;;;;;;5118037;28;20918;-72
2022/04/02 11:41:04;;;;;;;3.50;2.10;;;7.40;1.00;;;;;;5118220;28;20448;-71
2022/04/02 11:43:33;;;;;;;2.80;1.80;;;7.30;1.00;;;;;;5118413;28;20821;-72
2022/04/02 11:46:01;;;;;;;4.27;1.87;;;7.20;1.00;;;;;;5117885;28;20460;-72
2022/04/02 11:48:32;;;;;;;3.07;1.90;;;7.30;1.00;;;;;;5117927;28;20758;-72
2022/04/02 11:51:11;;;;;;;2.30;1.63;;;7.30;1.00;;;;;;5118007;28;20437;-72
2022/04/02 11:53:40;;;;;;;2.03;1.40;;;7.40;1.00;;;;;;5117932;28;20436;-73
2022/04/02 11:56:22;;;;;;;2.00;1.80;;;7.40;1.00;;;;;;5118167;28;20474;-73
2022/04/02 11:58:50;;;;;;;3.30;1.67;;;7.60;1.00;;;;;;5117646;28;20443;-73
2022/04/02 12:01:20;;;;;;;3.00;1.90;;;7.80;1.00;;;;;;5117252;28;20876;-73
2022/04/02 12:04:05;;;;;;;3.13;1.80;;;8.10;1.00;;;;;;5117328;28;20820;-72
2022/04/02 12:06:35;;;;;;;6.67;1.93;;;8.20;1.00;;;;;;5116977;28;20440;-73
2022/04/02 12:09:11;;;;;;;3.03;2.00;;;8.10;1.00;;;;;;5117340;28;20498;-72
2022/04/02 12:11:41;;;;;;;5.50;1.97;;;8.00;1.00;;;;;;5117448;28;20436;-73
2022/04/02 12:14:08;;;;;;;9.30;2.33;;;7.70;1.00;;;;;;5117395;28;20467;-73
2022/04/02 12:16:38;;;;;;;3.07;2.10;;;7.40;1.00;;;;;;5117357;28;20945;-72
2022/04/02 12:19:11;;;;;;;2.90;2.20;;;7.20;1.00;;;;;;5117593;28;20470;-72
2022/04/02 12:21:42;;;;;;;2.70;2.17;;;6.90;1.00;;;;;;5117307;28;20519;-71
2022/04/02 12:24:12;;;;;;;3.97;2.43;;;6.80;1.00;;;;;;5117500;28;20448;-72
2022/04/02 12:26:38;;;;;;;2.77;2.00;;;6.70;1.00;;;;;;5117691;28;20563;-72
2022/04/02 12:29:05;;;;;;;3.30;1.83;;;6.70;1.00;;;;;;5117830;28;20504;-75
2022/04/02 12:31:34;;;;;;;3.10;2.57;;;6.60;1.00;;;;;;5117424;28;20756;-73
2022/04/02 12:34:01;;;;;;;3.40;2.00;;;6.70;1.00;;;;;;5117315;28;20467;-73
2022/04/02 12:36:32;;;;;;;2.70;1.83;;;6.70;1.00;;;;;;5117234;28;20456;-72
2022/04/02 12:39:06;;;;;;;1.97;1.50;;;6.80;1.00;;;;;;5117529;28;20918;-73
2022/04/02 12:41:45;;;;;;;2.40;2.20;;;6.80;1.00;;;;;;5119710;28;20476;-73
2022/04/02 12:44:12;;;;;;;3.10;1.53;;;6.90;1.00;;;;;;5118311;28;20437;-72
2022/04/02 12:46:39;;;;;;;2.37;1.57;;;7.10;1.00;;;;;;5118500;28;20452;-72
2022/04/02 12:49:06;;;;;;;2.80;2.13;;;7.20;1.00;;;;;;5117737;28;20481;-72
2022/04/02 12:51:33;;;;;;;2.17;1.43;;;7.30;1.00;;;;;;5117230;28;20505;-73
2022/04/02 12:54:03;;;;;;;4.93;1.67;;;7.40;1.00;;;;;;5116858;28;20492;-73
2022/04/02 12:56:31;;;;;;;4.70;2.13;;;7.30;1.00;;;;;;5117222;28;20592;-73
2022/04/02 12:59:00;;;;;;;2.60;1.60;;;7.30;1.00;;;;;;5117326;28;20780;-73
2022/04/02 13:01:29;;;;;;;1.70;1.60;;;7.10;1.00;;;;;;5116506;28;20472;-73
2022/04/02 13:04:08;;;;;;;3.80;1.80;;;6.90;1.00;;;;;;5116967;28;20452;-73
2022/04/02 13:06:36;;;;;;;2.57;2.20;;;6.70;1.00;;;;;;5116544;28;20436;-73
2022/04/02 13:09:05;;;;;;;8.83;2.50;;;6.50;1.00;;;;;;5116761;28;20479;-73
2022/04/02 13:11:41;;;;;;;2.77;1.80;;;6.30;1.00;;;;;;5116853;28;20491;-73
2022/04/02 13:14:15;;;;;;;2.70;1.70;;;6.20;1.00;;;;;;5117780;28;20483;-72
2022/04/02 13:16:43;;;;;;;1.80;1.50;;;6.10;1.00;;;;;;5116670;28;20441;-73
2022/04/02 13:22:16;;;;;;;2.67;1.60;;;6.10;1.00;;;;;;5034533;28;20479;-73
2022/04/02 13:24:54;;;;;;;1.80;1.70;;;6.10;1.00;;;;;;5034206;28;20836;-72
2022/04/02 13:27:57;;;;;;;2.20;2.00;;;6.20;1.00;;;;;;5076069;28;20886;-72
2022/04/02 13:30:33;;;;;;;2.60;2.10;;;6.30;1.00;;;;;;5115791;28;20875;-72